Time;durP1;ratioP1;P1;durP2;ratioP2;P2;SDS_P1;SDS_P2;PMS_P1;PMS_P2;Temp;Humidity;BMP_temperature;BMP_pressure;BME280_temperature;BME280_humidity;BME280_pressure;Samples;Min_cycle;Max_cycle;Signal;HPM_P1;HPM_P2
2024/02/04 00:00:21;;;;;;;;;;;;;;;6.48;100.00;97637.81;5124319;28;19996;-72
2024/02/04 00:02:47;;;;;;;;;;;;;;;6.48;100.00;97632.59;5125096;28;19935;-74
2024/02/04 00:05:13;;;;;;;;;;;;;;;6.49;100.00;97642.88;5124269;28;19936;-75
2024/02/04 00:07:39;;;;;;;;;;;;;;;6.51;100.00;97624.47;5124689;28;19929;-74
2024/02/04 00:10:05;;;;;;;;;;;;;;;6.54;100.00;97628.53;5124178;28;19934;-74
2024/02/04 00:12:31;;;;;;;;;;;;;;;6.54;100.00;97626.72;5124181;28;19941;-74
2024/02/04 00:14:57;;;;;;;;;;;;;;;6.53;100.00;97624.28;5127529;28;20004;-74
2024/02/04 00:17:23;;;;;;;;;;;;;;;6.50;100.00;97628.84;5128167;28;20021;-73
2024/02/04 00:19:48;;;;;;;;;;;;;;;6.47;100.00;97631.78;5128914;28;19927;-75
2024/02/04 00:22:18;;;;;;;;;;;;;;;6.48;100.00;97627.38;5109882;28;19943;-74
2024/02/04 00:24:44;;;;;;;;;;;;;;;6.49;100.00;97606.38;5128014;28;19937;-74
2024/02/04 00:27:10;;;;;;;;;;;;;;;6.47;100.00;97600.50;5127994;28;20000;-74
2024/02/04 00:29:35;;;;;;;;;;;;;;;6.43;100.00;97585.38;5128506;28;19957;-74
2024/02/04 00:32:01;;;;;;;;;;;;;;;6.40;100.00;97588.28;5127902;28;20121;-73
2024/02/04 00:34:27;;;;;;;;;;;;;;;6.40;100.00;97594.31;5127884;28;19931;-73
2024/02/04 00:36:53;;;;;;;;;;;;;;;6.42;100.00;97596.75;5127672;28;19957;-74
2024/02/04 00:39:19;;;;;;;;;;;;;;;6.43;100.00;97580.16;5127802;28;20268;-71
2024/02/04 00:41:45;;;;;;;;;;;;;;;6.42;100.00;97574.13;5127672;28;19985;-71
2024/02/04 00:44:10;;;;;;;;;;;;;;;6.38;100.00;97575.41;5127622;28;19948;-71
2024/02/04 00:46:36;;;;;;;;;;;;;;;6.35;100.00;97582.75;5127592;28;19937;-71
2024/02/04 00:49:02;;;;;;;;;;;;;;;6.34;100.00;97573.31;5126615;28;20215;-71
2024/02/04 00:51:28;;;;;;;;;;;;;;;6.33;100.00;97567.28;5127513;28;19937;-71
2024/02/04 00:53:54;;;;;;;;;;;;;;;6.30;100.00;97565.81;5109221;28;19972;-71
2024/02/04 00:56:20;;;;;;;;;;;;;;;6.27;100.00;97557.50;5126711;28;19956;-71
2024/02/04 00:58:45;;;;;;;;;;;;;;;6.24;100.00;97550.84;5127368;28;19934;-73
2024/02/04 01:01:12;;;;;;;;;;;;;;;6.22;100.00;97562.41;5127266;28;19932;-73
2024/02/04 01:03:38;;;;;;;;;;;;;;;6.22;100.00;97573.63;5128090;28;19933;-74
2024/02/04 01:06:04;;;;;;;;;;;;;;;6.22;100.00;97563.22;5127708;28;20218;-73
2024/02/04 01:08:30;;;;;;;;;;;;;;;6.24;100.00;97558.66;5127917;28;19947;-74
2024/02/04 01:10:56;;;;;;;;;;;;;;;6.25;100.00;97573.31;5109104;28;20106;-74
2024/02/04 01:13:22;;;;;;;;;;;;;;;6.25;100.00;97577.69;5127555;28;19931;-69
2024/02/04 01:15:47;;;;;;;;;;;;;;;6.25;100.00;97583.72;5126635;28;20018;-74
2024/02/04 01:18:13;;;;;;;;;;;;;;;6.24;100.00;97573.47;5127007;28;19931;-72
2024/02/04 01:20:39;;;;;;;;;;;;;;;6.24;100.00;97582.09;5109494;28;20117;-71
2024/02/04 01:23:05;;;;;;;;;;;;;;;6.24;100.00;97582.09;5127423;28;19941;-71
2024/02/04 01:25:31;;;;;;;;;;;;;;;6.25;100.00;97567.28;5127262;28;19933;-71
2024/02/04 01:27:57;;;;;;;;;;;;;;;6.24;100.00;97547.44;5127283;28;19934;-71
2024/02/04 01:30:22;;;;;;;;;;;;;;;6.19;100.00;97521.84;5126760;28;19934;-71
2024/02/04 01:32:48;;;;;;;;;;;;;;;6.16;100.00;97526.59;5127303;28;19943;-71
2024/02/04 01:35:15;;;;;;;;;;;;;;;6.10;100.00;97530.66;5126811;28;19934;-74
2024/02/04 01:37:41;;;;;;;;;;;;;;;6.03;100.00;97525.28;5126657;28;19936;-73
2024/02/04 01:40:07;;;;;;;;;;;;;;;5.99;100.00;97528.38;5108399;28;19934;-73
2024/02/04 01:42:33;;;;;;;;;;;;;;;5.95;100.00;97517.47;5127051;28;19934;-74
2024/02/04 01:44:59;;;;;;;;;;;;;;;5.90;100.00;97525.75;5126400;28;20002;-73
2024/02/04 01:47:25;;;;;;;;;;;;;;;5.86;100.00;97527.03;5126957;28;19982;-73
2024/02/04 01:49:51;;;;;;;;;;;;;;;5.82;100.00;97528.34;5127115;28;19944;-74
2024/02/04 01:52:17;;;;;;;;;;;;;;;5.78;100.00;97542.63;5126679;28;19938;-71
2024/02/04 01:54:43;;;;;;;;;;;;;;;5.76;100.00;97547.19;5109087;28;19942;-73
2024/02/04 01:57:10;;;;;;;;;;;;;;;5.74;100.00;97546.53;5108688;28;19987;-73
2024/02/04 01:59:37;;;;;;;;;;;;;;;5.73;100.00;97544.88;5126733;28;20112;-74
2024/02/04 02:02:03;;;;;;;;;;;;;;;5.75;100.00;97547.34;5126146;28;19952;-73
2024/02/04 02:04:29;;;;;;;;;;;;;;;5.74;100.00;97561.34;5126183;28;20234;-74
2024/02/04 02:06:55;;;;;;;;;;;;;;;5.75;100.00;97560.34;5126792;28;19927;-73
2024/02/04 02:09:22;;;;;;;;;;;;;;;5.77;100.00;97561.00;5125986;28;19957;-71
2024/02/04 02:11:54;;;;;;;;;;;;;;;5.78;100.00;97563.47;5125972;28;19935;-74
2024/02/04 02:14:24;;;;;;;;;;;;;;;5.79;100.00;97559.06;5108009;28;19940;-74
2024/02/04 02:16:50;;;;;;;;;;;;;;;5.79;100.00;97559.06;5125731;28;20281;-74
2024/02/04 02:19:16;;;;;;;;;;;;;;;5.81;100.00;97555.31;5126599;28;20210;-74
2024/02/04 02:22:04;;;;;;;;;;;;;;;5.82;100.00;97546.56;5125782;28;19964;-74
2024/02/04 02:24:33;;;;;;;;;;;;;;;5.83;100.00;97536.94;5126467;28;19934;-74
2024/02/04 02:26:59;;;;;;;;;;;;;;;5.81;100.00;97544.91;5126149;28;19935;-68
2024/02/04 02:29:25;;;;;;;;;;;;;;;5.81;100.00;97550.13;5125626;28;19997;-71
2024/02/04 02:31:51;;;;;;;;;;;;;;;5.81;100.00;97547.50;5125533;28;19950;-74
2024/02/04 02:34:17;;;;;;;;;;;;;;;5.83;100.00;97539.56;5108077;28;20234;-73
2024/02/04 02:36:45;;;;;;;;;;;;;;;5.82;100.00;97541.34;5125618;28;19954;-73
2024/02/04 02:39:15;;;;;;;;;;;;;;;5.78;100.00;97547.03;5125375;28;19937;-73
2024/02/04 02:41:42;;;;;;;;;;;;;;;5.76;100.00;97549.78;5125397;28;19932;-73
2024/02/04 02:44:09;;;;;;;;;;;;;;;5.76;100.00;97555.00;5125239;28;19934;-72
2024/02/04 02:46:36;;;;;;;;;;;;;;;5.74;100.00;97546.53;5125252;28;19933;-74
2024/02/04 02:49:02;;;;;;;;;;;;;;;5.73;100.00;97549.28;5107547;28;19940;-74
2024/02/04 02:51:28;;;;;;;;;;;;;;;5.74;100.00;97553.53;5125209;28;19935;-74
2024/02/04 02:53:54;;;;;;;;;;;;;;;5.77;100.00;97545.41;5124948;28;20015;-74
2024/02/04 02:56:20;;;;;;;;;;;;;;;5.83;100.00;97552.56;5125584;28;20243;-74
2024/02/04 02:58:46;;;;;;;;;;;;;;;5.80;100.00;97553.72;5125594;28;19935;-74
2024/02/04 03:01:12;;;;;;;;;;;;;;;5.81;100.00;97551.91;5107736;28;19970;-74
2024/02/04 03:03:37;;;;;;;;;;;;;;;5.81;100.00;97544.09;5124948;28;19939;-73
2024/02/04 03:06:03;;;;;;;;;;;;;;;5.82;100.00;97548.34;5106910;28;19938;-73
2024/02/04 03:08:29;;;;;;;;;;;;;;;5.82;100.00;97545.75;5106754;28;19958;-74
2024/02/04 03:10:55;;;;;;;;;;;;;;;5.82;100.00;97543.94;5106702;28;20001;-74
2024/02/04 03:13:21;;;;;;;;;;;;;;;5.83;100.00;97545.56;5124833;28;19969;-73
2024/02/04 03:15:47;;;;;;;;;;;;;;;5.83;100.00;97547.34;5107018;28;20149;-74
2024/02/04 03:18:12;;;;;;;;;;;;;;;5.82;100.00;97545.75;5125489;28;19938;-74
2024/02/04 03:20:38;;;;;;;;;;;;;;;5.80;100.00;97551.09;5106602;28;20218;-73
2024/02/04 03:23:04;;;;;;;;;;;;;;;5.79;100.00;97554.66;5124679;28;19943;-71
2024/02/04 03:25:30;;;;;;;;;;;;;;;5.78;100.00;97553.06;5124690;28;20021;-74
2024/02/04 03:27:56;;;;;;;;;;;;;;;5.78;100.00;97550.44;5107288;28;19935;-74
2024/02/04 03:30:22;;;;;;;;;;;;;;;5.78;100.00;97563.47;5124574;28;19994;-74
2024/02/04 03:32:47;;;;;;;;;;;;;;;5.76;100.00;97552.41;5124580;28;19935;-74
2024/02/04 03:35:13;;;;;;;;;;;;;;;5.73;100.00;97554.50;5124518;28;19944;-74
2024/02/04 03:37:39;;;;;;;;;;;;;;;5.69;100.00;97549.63;5124399;28;19954;-74
2024/02/04 03:40:05;;;;;;;;;;;;;;;5.67;100.00;97542.97;5124452;28;20096;-73
2024/02/04 03:42:31;;;;;;;;;;;;;;;5.65;100.00;97545.72;5124770;28;19939;-73
2024/02/04 03:44:57;;;;;;;;;;;;;;;5.65;100.00;97548.31;5124962;28;20256;-68
2024/02/04 03:47:23;;;;;;;;;;;;;;;5.66;100.00;97541.31;5124464;28;20121;-68
2024/02/04 03:49:48;;;;;;;;;;;;;;;5.66;100.00;97534.31;5128672;28;19938;-68
2024/02/04 03:52:14;;;;;;;;;;;;;;;5.67;100.00;97533.34;5110445;28;19935;-69
2024/02/04 03:54:40;;;;;;;;;;;;;;;5.66;100.00;97526.50;5129030;28;19938;-68
2024/02/04 03:57:06;;;;;;;;;;;;;;;5.65;100.00;97517.09;5128547;28;20023;-68
2024/02/04 03:59:32;;;;;;;;;;;;;;;5.64;100.00;97512.84;5129095;28;19942;-73
2024/02/04 04:01:57;;;;;;;;;;;;;;;5.62;100.00;97506.97;5128516;28;20077;-73
2024/02/04 04:04:23;;;;;;;;;;;;;;;5.62;100.00;97506.16;5128464;28;19940;-73
2024/02/04 04:06:49;;;;;;;;;;;;;;;5.60;100.00;97485.50;5110832;28;19950;-73
2024/02/04 04:09:15;;;;;;;;;;;;;;;5.59;100.00;97489.09;5128243;28;19947;-73
2024/02/04 04:11:41;;;;;;;;;;;;;;;5.57;100.00;97500.66;5128305;28;19932;-73
2024/02/04 04:14:07;;;;;;;;;;;;;;;5.58;100.00;97510.06;5129035;28;20270;-73
2024/02/04 04:16:32;;;;;;;;;;;;;;;5.57;100.00;97504.06;5128164;28;19950;-73
2024/02/04 04:18:58;;;;;;;;;;;;;;;5.59;100.00;97516.91;5128176;28;19979;-74
2024/02/04 04:21:24;;;;;;;;;;;;;;;5.57;100.00;97524.06;5128148;28;19942;-74
2024/02/04 04:23:50;;;;;;;;;;;;;;;5.58;100.00;97536.09;5128878;28;19938;-73
2024/02/04 04:26:16;;;;;;;;;;;;;;;5.61;100.00;97546.19;5127987;28;19999;-75
2024/02/04 04:28:41;;;;;;;;;;;;;;;5.64;100.00;97538.84;5128504;28;20216;-73
2024/02/04 04:31:07;;;;;;;;;;;;;;;5.66;100.00;97533.50;5128413;28;19934;-73
2024/02/04 04:33:33;;;;;;;;;;;;;;;5.66;100.00;97518.69;5127861;28;19946;-74
2024/02/04 04:35:59;;;;;;;;;;;;;;;5.68;100.00;97515.94;5127748;28;19930;-74
2024/02/04 04:38:25;;;;;;;;;;;;;;;5.67;100.00;97504.72;5127848;28;19933;-73
2024/02/04 04:40:51;;;;;;;;;;;;;;;5.66;100.00;97507.47;5127708;28;19935;-74
2024/02/04 04:43:16;;;;;;;;;;;;;;;5.64;100.00;97504.22;5128426;28;19933;-74
2024/02/04 04:45:42;;;;;;;;;;;;;;;5.59;100.00;97504.72;5128118;28;19997;-74
2024/02/04 04:48:08;;;;;;;;;;;;;;;5.58;100.00;97505.66;5127536;28;19934;-74
2024/02/04 04:50:34;;;;;;;;;;;;;;;5.58;100.00;97516.06;5127566;28;19992;-73
2024/02/04 04:53:00;;;;;;;;;;;;;;;5.55;100.00;97526.00;5127315;28;20273;-73
2024/02/04 04:55:26;;;;;;;;;;;;;;;5.55;100.00;97529.41;5128163;28;19942;-69
2024/02/04 04:57:52;;;;;;;;;;;;;;;5.58;100.00;97525.69;5128171;28;20247;-73
2024/02/04 05:00:18;;;;;;;;;;;;;;;5.58;100.00;97525.69;5126910;28;19935;-74
2024/02/04 05:02:44;;;;;;;;;;;;;;;5.59;100.00;97525.53;5127340;28;19937;-73
2024/02/04 05:05:10;;;;;;;;;;;;;;;5.60;100.00;97531.53;5127312;28;19944;-73
2024/02/04 05:07:36;;;;;;;;;;;;;;;5.62;100.00;97535.59;5127703;28;19945;-75
2024/02/04 05:10:02;;;;;;;;;;;;;;;5.63;100.00;97524.22;5127136;28;19936;-73
2024/02/04 05:12:28;;;;;;;;;;;;;;;5.63;100.00;97526.84;5127145;28;19932;-74
2024/02/04 05:14:54;;;;;;;;;;;;;;;5.61;100.00;97533.19;5127132;28;19934;-74
2024/02/04 05:17:20;;;;;;;;;;;;;;;5.59;100.00;97535.94;5127774;28;20003;-69
2024/02/04 05:19:45;;;;;;;;;;;;;;;5.57;100.00;97542.28;5127026;28;19935;-68
2024/02/04 05:22:11;;;;;;;;;;;;;;;5.58;100.00;97544.69;5126964;28;19942;-68
2024/02/04 05:24:37;;;;;;;;;;;;;;;5.57;100.00;97545.69;5126946;28;19985;-68
2024/02/04 05:27:03;;;;;;;;;;;;;;;5.56;100.00;97545.84;5109359;28;19934;-68
2024/02/04 05:29:30;;;;;;;;;;;;;;;5.52;100.00;97545.34;5127606;28;19931;-68
2024/02/04 05:31:55;;;;;;;;;;;;;;;5.52;100.00;97549.72;5126758;28;19939;-72
2024/02/04 05:34:21;;;;;;;;;;;;;;;5.52;100.00;97553.13;5108639;28;19968;-71
2024/02/04 05:36:47;;;;;;;;;;;;;;;5.53;100.00;97557.38;5126576;28;20046;-71
2024/02/04 05:39:14;;;;;;;;;;;;;;;5.54;100.00;97558.19;5109079;28;19930;-71
2024/02/04 05:41:40;;;;;;;;;;;;;;;5.55;100.00;97563.25;5127407;28;19935;-71
2024/02/04 05:44:06;;;;;;;;;;;;;;;5.55;100.00;97563.25;5127013;28;19932;-71
2024/02/04 05:46:32;;;;;;;;;;;;;;;5.54;100.00;97561.59;5125749;28;19957;-71
2024/02/04 05:48:58;;;;;;;;;;;;;;;5.53;100.00;97564.38;5126694;28;19963;-71
2024/02/04 05:51:24;;;;;;;;;;;;;;;5.53;100.00;97566.97;5126457;28;19939;-74
2024/02/04 05:53:50;;;;;;;;;;;;;;;5.53;100.00;97565.19;5126293;28;20110;-71
2024/02/04 05:56:15;;;;;;;;;;;;;;;5.52;100.00;97555.75;5108103;28;19939;-71
2024/02/04 05:58:41;;;;;;;;;;;;;;;5.53;100.00;97561.78;5108105;28;19947;-71
2024/02/04 06:01:07;;;;;;;;;;;;;;;5.53;100.00;97559.97;5126170;28;19954;-71
2024/02/04 06:03:33;;;;;;;;;;;;;;;5.54;100.00;97563.41;5125255;28;20054;-71
2024/02/04 06:05:59;;;;;;;;;;;;;;;5.53;100.00;97567.78;5126061;28;19933;-71
2024/02/04 06:08:25;;;;;;;;;;;;;;;5.55;100.00;97568.44;5126530;28;19992;-73
2024/02/04 06:10:51;;;;;;;;;;;;;;;5.58;100.00;97572.50;5125252;28;19934;-71
2024/02/04 06:13:17;;;;;;;;;;;;;;;5.59;100.00;97563.75;5125879;28;19936;-71
2024/02/04 06:15:42;;;;;;;;;;;;;;;5.58;100.00;97565.50;5125912;28;19934;-71
2024/02/04 06:18:08;;;;;;;;;;;;;;;5.59;100.00;97569.75;5125780;28;19956;-71
2024/02/04 06:20:34;;;;;;;;;;;;;;;5.61;100.00;97575.63;5125820;28;20101;-71
2024/02/04 06:23:00;;;;;;;;;;;;;;;5.64;100.00;97574.50;5125753;28;20116;-71
2024/02/04 06:25:26;;;;;;;;;;;;;;;5.65;100.00;97570.94;5125730;28;19940;-71
2024/02/04 06:27:52;;;;;;;;;;;;;;;5.66;100.00;97577.75;5125668;28;19969;-73
2024/02/04 06:30:18;;;;;;;;;;;;;;;5.65;100.00;97573.53;5125598;28;19980;-73
2024/02/04 06:32:44;;;;;;;;;;;;;;;5.64;100.00;97564.88;5125629;28;19933;-73
2024/02/04 06:35:10;;;;;;;;;;;;;;;5.66;100.00;97578.56;5126283;28;20203;-73
2024/02/04 06:37:35;;;;;;;;;;;;;;;5.68;100.00;97581.81;5125463;28;19995;-73
2024/02/04 06:40:01;;;;;;;;;;;;;;;5.69;100.00;97580.84;5126212;28;19934;-73
2024/02/04 06:42:27;;;;;;;;;;;;;;;5.72;100.00;97577.13;5125394;28;19941;-73
2024/02/04 06:44:53;;;;;;;;;;;;;;;5.74;100.00;97579.56;5125312;28;20105;-68
2024/02/04 06:47:19;;;;;;;;;;;;;;;5.75;100.00;97579.38;5126153;28;19947;-74
2024/02/04 06:49:47;;;;;;;;;;;;;;;5.76;100.00;97572.41;5125248;28;19934;-74
2024/02/04 06:52:13;;;;;;;;;;;;;;;5.74;100.00;97571.75;5124979;28;19935;-74
2024/02/04 06:54:39;;;;;;;;;;;;;;;5.73;100.00;97570.91;5107711;28;20154;-74
2024/02/04 06:57:05;;;;;;;;;;;;;;;5.73;100.00;97570.91;5125042;28;19955;-74
2024/02/04 06:59:31;;;;;;;;;;;;;;;5.74;100.00;97571.75;5125042;28;19938;-75
2024/02/04 07:01:57;;;;;;;;;;;;;;;5.75;100.00;97583.78;5125060;28;19988;-75
2024/02/04 07:04:25;;;;;;;;;;;;;;;5.72;100.00;97573.72;5124648;28;20453;-71
2024/02/04 07:06:51;;;;;;;;;;;;;;;5.71;100.00;97575.47;5106933;28;19996;-68
2024/02/04 07:09:17;;;;;;;;;;;;;;;5.71;100.00;97572.88;5125031;28;19951;-68
2024/02/04 07:11:43;;;;;;;;;;;;;;;5.72;100.00;97569.31;5124880;28;19935;-68
2024/02/04 07:14:09;;;;;;;;;;;;;;;5.75;100.00;97558.56;5124839;28;19941;-68
2024/02/04 07:16:35;;;;;;;;;;;;;;;5.79;100.00;97551.25;5124742;28;19943;-68
2024/02/04 07:19:01;;;;;;;;;;;;;;;5.83;100.00;97557.78;5125247;28;19943;-68
2024/02/04 07:21:26;;;;;;;;;;;;;;;5.88;100.00;97552.91;5106710;28;19935;-68
2024/02/04 07:23:52;;;;;;;;;;;;;;;5.90;100.00;97554.38;5106551;28;19942;-68
2024/02/04 07:26:18;;;;;;;;;;;;;;;5.89;100.00;97546.72;5124595;28;19934;-73
2024/02/04 07:28:44;;;;;;;;;;;;;;;5.90;100.00;97538.75;5124656;28;19929;-73
2024/02/04 07:31:10;;;;;;;;;;;;;;;5.92;100.00;97537.78;5124599;28;19935;-73
2024/02/04 07:33:36;;;;;;;;;;;;;;;5.93;100.00;97531.59;5124853;28;19956;-73
2024/02/04 07:36:02;;;;;;;;;;;;;;;5.92;100.00;97538.56;5124538;28;19936;-73
2024/02/04 07:38:28;;;;;;;;;;;;;;;5.93;100.00;97529.81;5124477;28;20035;-73
2024/02/04 07:40:55;;;;;;;;;;;;;;;5.95;100.00;97543.50;5124453;28;19949;-74
2024/02/04 07:43:21;;;;;;;;;;;;;;;5.97;100.00;97551.97;5125303;28;19939;-74
2024/02/04 07:45:47;;;;;;;;;;;;;;;5.99;100.00;97542.22;5106315;28;20105;-73
2024/02/04 07:48:13;;;;;;;;;;;;;;;6.03;100.00;97540.09;5124637;28;19939;-74
2024/02/04 07:50:39;;;;;;;;;;;;;;;6.07;100.00;97546.63;5124928;28;19935;-73
2024/02/04 07:53:05;;;;;;;;;;;;;;;6.11;100.00;97550.53;5124650;28;20026;-74
2024/02/04 07:55:31;;;;;;;;;;;;;;;6.15;100.00;97548.38;5124341;28;19934;-73
2024/02/04 07:57:57;;;;;;;;;;;;;;;6.23;100.00;97551.00;5124718;28;19955;-73
2024/02/04 08:00:22;;;;;;;;;;;;;;;6.32;100.00;97541.38;5124424;28;19930;-71
2024/02/04 08:02:49;;;;;;;;;;;;;;;6.39;100.00;97542.38;5124819;28;19947;-71
2024/02/04 08:05:14;;;;;;;;;;;;;;;6.44;100.00;97530.47;5124217;28;20219;-71
2024/02/04 08:07:41;;;;;;;;;;;;;;;6.49;100.00;97530.81;5124376;28;19934;-71
2024/02/04 08:10:07;;;;;;;;;;;;;;;6.54;100.00;97526.88;5124378;28;19942;-71
2024/02/04 08:12:33;;;;;;;;;;;;;;;6.64;100.00;97522.31;5124598;28;19935;-71
2024/02/04 08:14:58;;;;;;;;;;;;;;;6.78;100.00;97533.84;5124354;28;20159;-71
2024/02/04 08:17:25;;;;;;;;;;;;;;;6.91;100.00;97518.50;5124340;28;19954;-68
2024/02/04 08:19:51;;;;;;;;;;;;;;;7.05;100.00;97520.38;5124377;28;19940;-74
2024/02/04 08:22:19;;;;;;;;;;;;;;;7.29;100.00;97523.88;5124584;28;20147;-74
2024/02/04 08:24:45;;;;;;;;;;;;;;;7.49;100.00;97516.44;5124814;28;19939;-73
2024/02/04 08:27:10;;;;;;;;;;;;;;;7.58;100.00;97504.16;5124268;28;20122;-74
2024/02/04 08:29:36;;;;;;;;;;;;;;;7.60;100.00;97513.44;5124252;28;19999;-73
2024/02/04 08:32:02;;;;;;;;;;;;;;;7.64;100.00;97521.72;5124761;28;19974;-74
2024/02/04 08:34:28;;;;;;;;;;;;;;;7.71;100.00;97514.84;5125165;28;19979;-73
2024/02/04 08:36:54;;;;;;;;;;;;;;;7.81;100.00;97512.00;5128767;28;19965;-74
2024/02/04 08:39:20;;;;;;;;;;;;;;;7.95;100.00;97500.81;5128262;28;19945;-71
2024/02/04 08:41:45;;;;;;;;;;;;;;;8.04;100.00;97497.16;5128026;28;19958;-71
2024/02/04 08:44:11;;;;;;;;;;;;;;;8.19;100.00;97497.19;5128470;28;20255;-71
2024/02/04 08:46:37;;;;;;;;;;;;;;;8.34;100.00;97503.25;5128147;28;20146;-71
2024/02/04 08:49:03;;;;;;;;;;;;;;;8.55;100.00;97504.41;5128608;28;20233;-71
2024/02/04 08:51:29;;;;;;;;;;;;;;;8.72;100.00;97495.41;5127853;28;19936;-71
2024/02/04 08:53:55;;;;;;;;;;;;;;;8.89;100.00;97530.03;5127669;28;19967;-72
2024/02/04 08:56:20;;;;;;;;;;;;;;;9.02;100.00;97524.16;5092639;28;19949;-71
2024/02/04 08:58:46;;;;;;;;;;;;;;;9.11;100.00;97520.47;5110266;28;19948;-74
2024/02/04 09:01:12;;;;;;;;;;;;;;;9.14;100.00;97511.44;5127589;28;19935;-73
2024/02/04 09:03:38;;;;;;;;;;;;;;;9.08;100.00;97496.47;5127599;28;19936;-73
2024/02/04 09:06:05;;;;;;;;;;;;;;;8.99;100.00;97498.38;5109421;28;19970;-74
2024/02/04 09:08:31;;;;;;;;;;;;;;;8.96;100.00;97497.91;5109119;28;19954;-74
2024/02/04 09:10:57;;;;;;;;;;;;;;;8.89;100.00;97496.03;5127439;28;19941;-75
2024/02/04 09:13:22;;;;;;;;;;;;;;;8.85;100.00;97494.75;5127703;28;19996;-74
2024/02/04 09:15:52;;;;;;;;;;;;;;;8.91;100.00;97511.53;5109224;28;19942;-73
2024/02/04 09:18:18;;;;;;;;;;;;;;;8.93;100.00;97515.59;5127223;28;19954;-74
2024/02/04 09:20:44;;;;;;;;;;;;;;;8.91;100.00;97514.16;5109074;28;20150;-73
2024/02/04 09:23:10;;;;;;;;;;;;;;;8.82;100.00;97508.22;5127192;28;19942;-74
2024/02/04 09:25:36;;;;;;;;;;;;;;;8.78;100.00;97499.09;5127198;28;19939;-73
2024/02/04 09:28:02;;;;;;;;;;;;;;;8.67;100.00;97486.44;5108962;28;19977;-73
2024/02/04 09:30:28;;;;;;;;;;;;;;;8.57;100.00;97505.03;5127917;28;19959;-71
2024/02/04 09:32:54;;;;;;;;;;;;;;;8.54;100.00;97511.41;5127068;28;19978;-72
2024/02/04 09:35:20;;;;;;;;;;;;;;;8.55;100.00;97512.25;5109406;28;19967;-74
2024/02/04 09:37:46;;;;;;;;;;;;;;;8.55;100.00;97504.41;5126881;28;19957;-74
2024/02/04 09:40:12;;;;;;;;;;;;;;;8.51;100.00;97490.88;5126837;28;19937;-74
2024/02/04 09:42:38;;;;;;;;;;;;;;;8.54;100.00;97500.97;5126881;28;20214;-74
2024/02/04 09:45:04;;;;;;;;;;;;;;;8.56;100.00;97508.63;5126553;28;19947;-74
2024/02/04 09:47:32;;;;;;;;;;;;;;;8.56;100.00;97521.69;5125722;28;19938;-73
2024/02/04 09:49:57;;;;;;;;;;;;;;;8.63;100.00;97525.25;5127187;28;19939;-72
2024/02/04 09:52:30;;;;;;;;;;;;;;;8.81;100.00;97530.13;5126764;28;19931;-72
2024/02/04 09:54:58;;;;;;;;;;;;;;;8.98;100.00;97528.13;5127483;28;19948;-71
2024/02/04 09:57:24;;;;;;;;;;;;;;;9.11;100.00;97524.88;5126422;28;19958;-72
2024/02/04 09:59:50;;;;;;;;;;;;;;;9.08;100.00;97533.09;5108312;28;20165;-72
2024/02/04 10:02:17;;;;;;;;;;;;;;;8.96;100.00;97535.34;5126699;28;19993;-72
2024/02/04 10:04:42;;;;;;;;;;;;;;;8.81;100.00;97532.72;5084040;28;19942;-71
2024/02/04 10:07:08;;;;;;;;;;;;;;;8.71;100.00;97535.63;5067477;28;19980;-71
2024/02/04 10:09:34;;;;;;;;;;;;;;;8.65;100.00;97540.72;5084016;28;19993;-71
2024/02/04 10:12:00;;;;;;;;;;;;;;;8.63;100.00;97534.88;5051137;28;19940;-73
2024/02/04 10:14:26;;;;;;;;;;;;;;;8.61;100.00;97537.69;5083965;28;20260;-74
2024/02/04 10:16:52;;;;;;;;;;;;;;;8.65;100.00;97535.50;5084275;28;19937;-74
2024/02/04 10:19:18;;;;;;;;;;;;;;;8.76;100.00;97502.88;5067392;28;19965;-74
2024/02/04 10:21:44;;;;;;;;;;;;;;;8.84;100.00;97495.78;5082966;28;20176;-74
2024/02/04 10:24:10;;;;;;;;;;;;;;;8.87;100.00;97481.50;5084278;28;20257;-73
2024/02/04 10:26:37;;;;;;;;;;;;;;;8.86;100.00;97487.72;5083510;28;19935;-69
2024/02/04 10:29:03;;;;;;;;;;;;;;;8.81;100.00;97501.34;5084045;28;19948;-73
2024/02/04 10:31:29;;;;;;;;;;;;;;;8.76;100.00;97490.63;5084170;28;20197;-74
2024/02/04 10:33:56;;;;;;;;;;;;;;;8.80;100.00;97470.97;5083899;28;19939;-74
2024/02/04 10:36:22;;;;;;;;;;;;;;;8.96;100.00;97450.81;5115689;28;19933;-74
2024/02/04 10:38:48;;;;;;;;;;;;;;;9.16;100.00;97445.84;5125619;28;19951;-74
2024/02/04 10:41:14;;;;;;;;;;;;;;;9.34;100.00;97462.75;5125588;28;19933;-74
2024/02/04 10:43:42;;;;;;;;;;;;;;;9.46;100.00;97468.31;5125656;28;19938;-74
2024/02/04 10:46:18;;;;;;;;;;;;;;;9.48;100.00;97460.28;5108321;28;19934;-74
2024/02/04 10:48:45;;;;;;;;;;;;;;;9.45;100.00;97437.06;5125537;28;19932;-74
2024/02/04 10:51:15;;;;;;;;;;;;;;;9.36;100.00;97444.22;5125495;28;19934;-73
2024/02/04 10:53:42;;;;;;;;;;;;;;;9.30;100.00;97447.59;5125474;28;19965;-74
2024/02/04 10:56:13;;;;;;;;;;;;;;;9.13;100.00;97447.00;5125676;28;20016;-75
2024/02/04 10:58:39;;;;;;;;;;;;;;;9.12;100.00;97445.38;5107510;28;19968;-74
2024/02/04 11:01:06;;;;;;;;;;;;;;;9.21;100.00;97451.31;5125288;28;20260;-74
2024/02/04 11:03:32;;;;;;;;;;;;;;;9.33;100.00;97448.03;5125270;28;20125;-75
2024/02/04 11:05:58;;;;;;;;;;;;;;;9.45;100.00;97447.53;5125741;28;19937;-72
2024/02/04 11:08:25;;;;;;;;;;;;;;;9.51;100.00;97460.72;5125183;28;19955;-71
2024/02/04 11:10:52;;;;;;;;;;;;;;;9.59;100.00;97475.50;5125124;28;19932;-71
2024/02/04 11:13:20;;;;;;;;;;;;;;;9.74;100.00;97467.56;5125104;28;19940;-71
2024/02/04 11:15:47;;;;;;;;;;;;;;;9.74;100.00;97447.44;5125648;28;19940;-71
2024/02/04 11:18:32;;;;;;;;;;;;;;;9.68;100.00;97442.97;5124948;28;19975;-71
2024/02/04 11:21:16;;;;;;;;;;;;;;;9.68;100.00;97444.75;5125564;28;19934;-71
2024/02/04 11:23:55;;;;;;;;;;;;;;;9.83;100.00;97434.22;5124989;28;19933;-72
2024/02/04 11:26:22;;;;;;;;;;;;;;;9.90;100.00;97440.31;5106894;28;19944;-72
2024/02/04 11:28:48;;;;;;;;;;;;;;;9.92;100.00;97426.03;5107656;28;19944;-71
2024/02/04 11:31:15;;;;;;;;;;;;;;;10.08;100.00;97403.16;5125395;28;20228;-71
2024/02/04 11:33:41;;;;;;;;;;;;;;;10.29;100.00;97391.78;5124851;28;19939;-71
2024/02/04 11:36:12;;;;;;;;;;;;;;;10.59;100.00;97399.47;5124786;28;19931;-72
2024/02/04 11:38:38;;;;;;;;;;;;;;;10.93;100.00;97362.66;5125505;28;19949;-72
2024/02/04 11:41:04;;;;;;;;;;;;;;;11.22;100.00;97342.34;5125545;28;20223;-73
2024/02/04 11:43:32;;;;;;;;;;;;;;;11.52;100.00;97326.22;5125283;28;19936;-71
2024/02/04 11:46:00;;;;;;;;;;;;;;;11.71;99.60;97314.09;5124975;28;19936;-72
2024/02/04 11:48:29;;;;;;;;;;;;;;;11.82;99.31;97308.19;5106623;28;19936;-72
2024/02/04 11:50:55;;;;;;;;;;;;;;;11.93;97.26;97285.78;5124902;28;19934;-72
2024/02/04 11:53:22;;;;;;;;;;;;;;;11.98;98.59;97304.38;5106331;28;19966;-72
2024/02/04 11:55:51;;;;;;;;;;;;;;;11.92;97.91;97319.13;5124580;28;20126;-72
2024/02/04 11:58:18;;;;;;;;;;;;;;;11.83;100.00;97337.94;5124424;28;20135;-72
2024/02/04 12:00:45;;;;;;;;;;;;;;;11.64;98.22;97316.72;5125089;28;19938;-72
2024/02/04 12:03:11;;;;;;;;;;;;;;;11.51;97.80;97314.91;5124450;28;19930;-72
2024/02/04 12:05:38;;;;;;;;;;;;;;;11.56;97.83;97309.03;5124747;28;19940;-72
2024/02/04 12:08:05;;;;;;;;;;;;;;;11.65;98.34;97315.69;5124376;28;20242;-72
2024/02/04 12:10:32;;;;;;;;;;;;;;;11.78;97.71;97297.31;5127253;28;20241;-72
2024/02/04 12:13:02;;;;;;;;;;;;;;;11.84;95.37;97274.63;5128571;28;19935;-72
2024/02/04 12:15:28;;;;;;;;;;;;;;;11.89;96.03;97282.75;5129040;28;19936;-71
2024/02/04 12:17:55;;;;;;;;;;;;;;;11.80;96.63;97286.59;5128508;28;19950;-73
2024/02/04 12:20:21;;;;;;;;;;;;;;;11.63;96.70;97288.00;5128931;28;19932;-73
2024/02/04 12:22:48;;;;;;;;;;;;;;;11.51;99.86;97314.91;5128358;28;19992;-74
2024/02/04 12:25:14;;;;;;;;;;;;;;;11.42;99.50;97312.66;5128263;28;19934;-73
2024/02/04 12:27:40;;;;;;;;;;;;;;;11.37;99.36;97308.03;5128248;28;19949;-74
2024/02/04 12:30:07;;;;;;;;;;;;;;;11.35;100.00;97323.19;5110618;28;19984;-73
2024/02/04 12:32:33;;;;;;;;;;;;;;;11.33;100.00;97314.69;5128202;28;19934;-73
2024/02/04 12:34:59;;;;;;;;;;;;;;;11.33;100.00;97310.25;5128133;28;19935;-72
2024/02/04 12:37:26;;;;;;;;;;;;;;;11.30;100.00;97312.47;5110760;28;20252;-74
2024/02/04 12:39:52;;;;;;;;;;;;;;;11.23;100.00;97306.41;5110499;28;19937;-74